Warning: Javascript must be enabled to use all the features on this page!


Page Loading - Please Wait...

* We've detected you're using a mobile device. Find our Next Generation Station Page here.
Click to hideNews Bulletins

Peak Streamflow for the Nation

USGS 07260500 Petit Jean River at Danville, AR

Yell County, Arkansas
Hydrologic Unit Code 11110204
Latitude  35°03'31", Longitude  93°23'44" NAD83
Drainage area 764  square miles
Gage datum 304.84 feet above NAVD88
Output formats
Table
Graph
Tab-separated file
peakfq (watstore) format
Reselect output format
Water
Year
Date Gage
Height
(feet)
Stream-
flow
(cfs)
1917 1917-06-03 21.70 6,290
1918 1918-05-14 20.90 5,010
1919 1918-12-15 24.30 14,600
1920 1920-01-24 24.80 17,700
1921 1921-04-28 24.70 17,000
1922 1921-11-20 24.00 15,800
1923 1923-05-16 25.10 19,800
1924 1924-04-30 25.40 22,200
1925 1925-02-24 18.30 3,020
1926 1925-10-18 23.50 10,900
1927 1927-04-15 28.40 50,900
1928 1928-04-07 25.50 23,000
1929 1929-01-26 23.90 12,600
1930 1930-05-11 26.30 30,200
1931 1931-02-24 21.40 5,770
1932 1932-02-18 24.40 15,200
1933 1933-05-17 23.60 11,300
1934 1934-03-27 22.906 8,970
1935 1935-06-18 30.203 58,300
1936 1935-12-09 23.30 9,560
1937 1937-01-23 24.30 13,000
1938 1938-02-18 29.30 45,400
1939 1939-04-17 31.82 70,800
1940 1940-04-30 19.30 3,3805
1941 1941-01-04 22.18 6,3505
1942 1941-11-01 24.18 13,0005
1943 1943-05-12 28.12 35,500
1944 1944-05-04 24.02 12,200
1945 1945-03-31 29.50 45,700
1946 1946-02-14 25.05 13,4005
1947 1946-12-13 24.99 13,4005
1948 1948-01-01 25.05 13,4006
1949 1949-01-25 27.85 27,0006
1950 1950-01-14 25.43 15,0006
1951 1951-02-16 22.07 5,7306
1952 1952-04-23 25.12 14,2006
1953 1953-03-18   11,1006
1954 1954-05-03 24.35 11,2006
1955 1955-03-22 21.66 5,1906
1956 1956-02-19 22.10 5,7306
1957 1957-04-04 25.53 16,3006
1958 1958-05-03 23.77 11,1006
1959 1959-03-27 21.54 5,3106
1960 1960-05-21 25.16 15,8006
1961 1960-12-12 21.72 5,7006
1962 1962-02-26 20.21 3,8206
1963 1963-03-20 16.84 2,8506
1964 1964-03-10 21.77 5,2506
1965 1965-01-10 20.48 3,8306
1966 1966-04-25 21.47 7,8306
1967 1967-05-07 19.64 4,8606
1968 1968-05-14 25.18 20,0006
1969 1969-01-31 24.25 14,4006
1970 1970-04-20 23.69 13,0006
1971 1971-02-13 13.93 2,6206
1972 1971-12-10 26.37 27,5006
1973 1972-11-02 24.02 12,3006
1974 1973-12-05 22.73 8,2006
1975 1975-03-29 24.40 14,5006
1976 1976-03-09 15.57 2,4101,6
1977 1977-03-28 24.75 18,8006
1978 1978-05-09 22.15 7,2506
1979 1979-04-02 24.49 15,6006
1980 1980-05-16 18.09 3,5606
1981 1981-06-07 19.65 4,0301,6
1982 1982-03-15 20.31 4,7806
1983 1982-12-03 29.36 47,5006
1984 1984-05-04 21.87 6,3406
1985 1984-10-25 25.86 19,2006
1986 1985-11-27 25.46 16,9006
1987 1987-03-18 22.27 7,4006
1988 1987-12-27 24.59 13,3006
1989 1989-02-16 24.34 12,5006
1990 1990-05-03 27.99 33,6006
1991 1991-04-14 24.423 12,8006
1992 1991-12-03 21.77 6,0906
1993 1992-12-16 23.44 10,2006
1994 1993-12-04 24.86 14,3006
1995 1995-05-09 22.33 7,5206
1996 1996-04-23 20.67 4,9606
1997 1996-11-25 25.64 17,7006
1998 1998-01-06 24.98 14,3006
1999 1999-03-14 21.802 7,8206
2000 1999-12-13 24.462 12,5006
2001 2001-02-17 25.23 15,3006
2002 2001-12-17 25.96 19,5006
2003 2003-02-20 17.762 3,2606
2004 2004-04-25 24.482 12,7006
2005 2004-11-30 22.652 7,7906
2006 2006-03-21 19.972 4,3606
2007 2007-01-15 24.35 8,8506
2008 2008-03-19 28.21 29,3006
2009 2009-09-17 24.452 12,5006
2010 2010-05-21 23.97 10,2006
2011 2011-05-03 24.01 10,4006
2012 2011-11-22 26.66 23,2006
2013 2013-01-13 21.90 4,9406
2014 2014-06-10 22.12 6,1006
2015 2015-05-12 26.89 20,7006
2016 2015-12-28 29.15 31,4006
2017 2017-05-01 18.66 3,5506
2018 2018-02-25 23.23 8,3806
2019 2019-06-24 24.34 11,9006
2020 2020-09-02 27.30 23,8006
?
  Peak Gage-Height Qualification Codes.
?
  Peak Streamflow Qualification Codes.